Lowell, Massachusetts
Current Conditions -  °F | °C
As of 5:54 PM on Tuesday 27 Jan 2015 (Local Time) from KLWM Reporting Station
Light Snow Light Snow  
Wind Chill:   Ceiling: 2000
Heat Index: 16°   Visibility: 1.7mi
Dew Point: 12°   Wind: 16mph
Humidity: 84%   Direction: 330°NNW
Pressure: 29.58"   Gusts: 26mph
Location:  42.65°N, 71.31°W
Report Text: KLWM 272254Z AUTO 33014G23KT 1 3/4SM -SN BR FEW013 OVC020 M09/M11 A2958 RMK AO2 SLP019 P0000 T10891111 $
Loading
Personal Weather Stations






























Interactive Weather Map New forecast layout! Learn more

10-Day Weather Forecast

Advertisements
Track Severe Weather on mobile